Avoca, Minnesota
Current Conditions -  °F | °C
As of 3:36 AM on Thursday 27 Nov 2014 (Local Time) from KDVP Reporting Station
Clear Clear  
Wind Chill: -20°   Ceiling: Unl
Heat Index: -5°   Visibility: 10mi
Dew Point: -9°   Wind: 8mph
Humidity: 81%   Direction: 330°NNW
Pressure: 30.46"   Gusts: NA
Location:  43.95°N, 95.65°W
Report Text: KDVP 270936Z AUTO 33007KT 10SM CLR M20/M23 A3046 RMK AO2 T12051230
Loading
Personal Weather Stations






























Interactive Weather Map New forecast layout! Learn more

10-Day Weather Forecast

Advertisements
Track Severe Weather on mobile